createdAt,value
2023-05-05T00:01:43.442Z,100394.72
2023-05-05T00:04:11.198Z,100389.00
2023-05-05T00:06:38.682Z,100398.09
2023-05-05T00:09:06.829Z,100388.22
2023-05-05T00:11:34.525Z,100394.28
2023-05-05T00:14:01.933Z,100392.84
2023-05-05T00:16:29.474Z,100394.31
2023-05-05T00:18:57.830Z,100388.88
2023-05-05T00:21:25.334Z,100391.88
2023-05-05T00:23:52.724Z,100388.38
2023-05-05T00:26:21.242Z,100389.13
2023-05-05T00:28:49.340Z,100384.56
2023-05-05T00:31:16.923Z,100384.69
2023-05-05T00:33:44.680Z,100376.81
2023-05-05T00:36:12.306Z,100378.97
2023-05-05T00:38:39.709Z,100380.00
2023-05-05T00:41:07.621Z,100379.34
2023-05-05T00:43:35.085Z,100384.09
2023-05-05T00:46:06.560Z,100381.62
2023-05-05T00:48:34.649Z,100379.59
2023-05-05T00:51:02.334Z,100384.53
2023-05-05T00:53:29.976Z,100380.50
2023-05-05T00:55:58.051Z,100384.72
2023-05-05T00:58:25.474Z,100374.06
2023-05-05T01:00:53.177Z,100375.59
2023-05-05T01:03:21.056Z,100383.13
2023-05-05T01:06:15.618Z,100370.94
2023-05-05T01:09:09.423Z,100375.13
2023-05-05T01:12:02.369Z,100375.09
2023-05-05T01:14:42.116Z,100363.44
2023-05-05T01:17:17.353Z,100365.16
2023-05-05T01:20:26.570Z,100365.87
2023-05-05T01:23:00.558Z,100368.16
2023-05-05T01:25:43.320Z,100361.91
2023-05-05T01:28:24.430Z,100368.19
2023-05-05T01:31:13.790Z,100363.63
2023-05-05T01:33:46.416Z,100368.87
2023-05-05T01:36:22.931Z,100370.81
2023-05-05T01:38:57.223Z,100368.00
2023-05-05T01:41:28.702Z,100369.69
2023-05-05T01:43:57.349Z,100374.25
2023-05-05T01:46:25.653Z,100367.56
2023-05-05T01:48:54.036Z,100364.88
2023-05-05T01:51:23.569Z,100368.16
2023-05-05T01:53:57.579Z,100367.41
2023-05-05T01:56:25.381Z,100371.38
2023-05-05T01:58:54.125Z,100366.28
2023-05-05T02:01:27.020Z,100361.19
2023-05-05T02:03:59.087Z,100369.94
2023-05-05T02:06:28.302Z,100363.59
2023-05-05T02:08:58.400Z,100367.06
2023-05-05T02:11:26.981Z,100360.28
2023-05-05T02:13:54.717Z,100358.22
2023-05-05T02:16:22.911Z,100360.66
2023-05-05T02:18:50.744Z,100359.41
2023-05-05T02:21:18.377Z,100364.31
2023-05-05T02:23:51.550Z,100369.37
2023-05-05T02:26:21.674Z,100361.78
2023-05-05T02:29:07.574Z,100361.06
2023-05-05T02:31:39.819Z,100359.44
2023-05-05T02:34:08.218Z,100356.47
2023-05-05T02:36:38.361Z,100364.16
2023-05-05T02:39:18.159Z,100361.16
2023-05-05T02:41:47.482Z,100356.69
2023-05-05T02:44:17.137Z,100361.94
2023-05-05T02:46:45.255Z,100356.75
2023-05-05T02:49:12.915Z,100363.72
2023-05-05T02:51:40.541Z,100366.09
2023-05-05T02:54:09.014Z,100367.56
2023-05-05T02:56:40.963Z,100365.94
2023-05-05T02:59:31.932Z,100360.84
2023-05-05T03:02:16.475Z,100368.63
2023-05-05T03:05:06.620Z,100360.56
2023-05-05T03:07:41.081Z,100364.09
2023-05-05T03:10:10.940Z,100358.66
2023-05-05T03:12:51.675Z,100367.38
2023-05-05T03:15:23.063Z,100363.34
2023-05-05T03:17:53.533Z,100372.31
2023-05-05T03:20:22.665Z,100365.72
2023-05-05T03:22:50.883Z,100364.41
2023-05-05T03:25:18.659Z,100354.97
2023-05-05T03:27:46.276Z,100354.12
2023-05-05T03:30:15.258Z,100365.25
2023-05-05T03:32:44.470Z,100362.19
2023-05-05T03:35:12.100Z,100369.69
2023-05-05T03:37:39.740Z,100372.16
2023-05-05T03:40:08.208Z,100373.34
2023-05-05T03:42:35.876Z,100375.28
2023-05-05T03:45:03.488Z,100366.44
2023-05-05T03:47:31.363Z,100366.63
2023-05-05T03:50:00.704Z,100360.38
2023-05-05T03:52:28.540Z,100369.91
2023-05-05T03:54:56.336Z,100374.09
2023-05-05T03:57:23.825Z,100372.59
2023-05-05T03:59:51.309Z,100377.50
2023-05-05T04:02:19.269Z,100378.31
2023-05-05T04:04:47.123Z,100388.66
2023-05-05T04:07:15.078Z,100391.25
2023-05-05T04:09:44.713Z,100391.06
2023-05-05T04:12:12.569Z,100392.69
2023-05-05T04:14:40.455Z,100389.50
2023-05-05T04:17:08.637Z,100387.84
2023-05-05T04:19:36.604Z,100378.22
2023-05-05T04:22:04.260Z,100387.44
2023-05-05T04:24:31.793Z,100389.97
2023-05-05T04:27:00.372Z,100389.50
2023-05-05T04:29:28.898Z,100378.12
2023-05-05T04:31:56.875Z,100387.38
2023-05-05T04:34:24.808Z,100383.06
2023-05-05T04:36:52.567Z,100391.84
2023-05-05T04:39:20.378Z,100393.84
2023-05-05T04:41:48.263Z,100392.84
2023-05-05T04:44:15.907Z,100391.25
2023-05-05T04:46:43.579Z,100394.56
2023-05-05T04:49:11.357Z,100393.06
2023-05-05T04:51:42.191Z,100402.84
2023-05-05T04:54:09.650Z,100407.28
2023-05-05T04:56:37.686Z,100407.97
2023-05-05T04:59:05.195Z,100403.97
2023-05-05T05:01:32.625Z,100408.25
2023-05-05T05:04:00.537Z,100396.87
2023-05-05T05:06:29.337Z,100405.63
2023-05-05T05:08:57.131Z,100405.72
2023-05-05T05:11:24.917Z,100401.44
2023-05-05T05:13:53.106Z,100410.91
2023-05-05T05:16:21.646Z,100416.78
2023-05-05T05:18:49.432Z,100411.03
2023-05-05T05:21:17.529Z,100411.59
2023-05-05T05:23:45.023Z,100412.25
2023-05-05T05:26:12.991Z,100403.94
2023-05-05T05:28:41.676Z,100414.22
2023-05-05T05:31:09.451Z,100415.69
2023-05-05T05:33:37.275Z,100412.63
2023-05-05T05:36:05.206Z,100418.59
2023-05-05T05:38:32.672Z,100417.22
2023-05-05T05:41:05.392Z,100424.09
2023-05-05T05:43:33.786Z,100427.69
2023-05-05T05:46:01.699Z,100432.31
2023-05-05T05:48:29.673Z,100425.19
2023-05-05T05:50:57.312Z,100425.31
2023-05-05T05:53:25.333Z,100422.00
2023-05-05T05:55:53.319Z,100424.19
2023-05-05T05:58:20.889Z,100425.69
2023-05-05T06:00:49.201Z,100424.72
2023-05-05T06:03:17.332Z,100420.16
2023-05-05T06:05:46.299Z,100422.91
2023-05-05T06:08:14.289Z,100414.94
2023-05-05T06:10:42.496Z,100415.00
2023-05-05T06:13:10.649Z,100410.94
2023-05-05T06:15:38.891Z,100411.09
2023-05-05T06:18:06.908Z,100412.06
2023-05-05T06:20:34.339Z,100417.66
2023-05-05T06:23:01.819Z,100414.66
2023-05-05T06:25:31.026Z,100419.19
2023-05-05T06:27:58.696Z,100418.56
2023-05-05T06:30:29.026Z,100420.19
2023-05-05T06:32:57.005Z,100403.13
2023-05-05T06:35:24.788Z,100402.87
2023-05-05T06:37:52.163Z,100401.97
2023-05-05T06:40:20.098Z,100400.50
2023-05-05T06:42:47.673Z,100403.72
2023-05-05T06:45:16.011Z,100400.25
2023-05-05T06:47:44.819Z,100405.34
2023-05-05T06:50:12.652Z,100401.72
2023-05-05T06:52:40.032Z,100406.47
2023-05-05T06:55:08.050Z,100400.72
2023-05-05T06:57:35.815Z,100406.87
2023-05-05T07:00:05.998Z,100404.28
2023-05-05T07:02:34.020Z,100403.09
2023-05-05T07:05:01.582Z,100400.19
2023-05-05T07:07:31.757Z,100396.25
2023-05-05T07:09:59.613Z,100400.69
2023-05-05T07:12:29.449Z,100398.84
2023-05-05T07:14:57.310Z,100398.31
2023-05-05T07:17:25.542Z,100396.37
2023-05-05T07:19:54.998Z,100400.34
2023-05-05T07:22:22.630Z,100398.78
2023-05-05T07:24:51.771Z,100400.59
2023-05-05T07:27:20.473Z,100391.72
2023-05-05T07:29:48.019Z,100399.78
2023-05-05T07:32:15.727Z,100388.66
2023-05-05T07:34:43.226Z,100393.94
2023-05-05T07:37:10.931Z,100390.00
2023-05-05T07:39:38.657Z,100390.97
2023-05-05T07:42:07.407Z,100387.41
2023-05-05T07:44:34.890Z,100391.62
2023-05-05T07:47:02.606Z,100383.56
2023-05-05T07:49:30.028Z,100388.41
2023-05-05T07:51:57.456Z,100384.06
2023-05-05T07:54:25.081Z,100382.50
2023-05-05T07:56:52.671Z,100387.91
2023-05-05T07:59:20.238Z,100373.56
2023-05-05T08:01:47.913Z,100385.28
2023-05-05T08:04:15.707Z,100385.25
2023-05-05T08:06:43.222Z,100388.53
2023-05-05T08:09:10.946Z,100388.50
2023-05-05T08:11:39.280Z,100382.66
2023-05-05T08:14:07.722Z,100378.72
2023-05-05T08:16:35.394Z,100377.72
2023-05-05T08:19:06.219Z,100377.25
2023-05-05T08:21:37.338Z,100375.41
2023-05-05T08:24:05.158Z,100375.03
2023-05-05T08:26:32.557Z,100374.56
2023-05-05T08:29:01.175Z,100368.69
2023-05-05T08:31:33.177Z,100373.03
2023-05-05T08:34:00.669Z,100365.25
2023-05-05T08:36:29.036Z,100373.19
2023-05-05T08:38:56.806Z,100372.31
2023-05-05T08:41:24.097Z,100380.09
2023-05-05T08:43:52.376Z,100374.56
2023-05-05T08:46:20.117Z,100381.19
2023-05-05T08:48:47.708Z,100374.78
2023-05-05T08:51:21.519Z,100379.56
2023-05-05T08:53:58.841Z,100374.84
2023-05-05T08:56:27.437Z,100376.94
2023-05-05T08:58:55.023Z,100372.78
2023-05-05T09:01:22.804Z,100389.09
2023-05-05T09:03:50.729Z,100380.88
2023-05-05T09:06:20.519Z,100371.94
2023-05-05T09:08:47.689Z,100368.34
2023-05-05T09:11:14.857Z,100369.28
2023-05-05T09:16:28.748Z,100363.94
2023-05-05T09:19:03.445Z,100360.41
2023-05-05T09:21:30.724Z,100366.63
2023-05-05T09:24:11.026Z,100358.66
2023-05-05T09:26:40.172Z,100358.31
2023-05-05T09:29:07.727Z,100342.13
2023-05-05T09:31:38.113Z,100346.09
2023-05-05T09:34:15.630Z,100347.88
2023-05-05T09:36:44.257Z,100339.22
2023-05-05T09:39:11.636Z,100331.78
2023-05-05T09:41:43.844Z,100339.28
2023-05-05T09:44:12.664Z,100334.41
2023-05-05T09:46:49.212Z,100330.81
2023-05-05T09:49:20.636Z,100329.91
2023-05-05T09:51:48.090Z,100322.50
2023-05-05T09:54:24.867Z,100325.63
2023-05-05T09:56:52.494Z,100323.00
2023-05-05T09:59:19.785Z,100326.34
2023-05-05T10:01:47.602Z,100319.53
2023-05-05T10:04:25.072Z,100324.63
2023-05-05T10:06:52.284Z,100312.81
2023-05-05T10:09:19.767Z,100321.44
2023-05-05T10:11:50.305Z,100316.34
2023-05-05T10:14:18.173Z,100310.63
2023-05-05T10:16:49.616Z,100309.38
2023-05-05T10:19:17.653Z,100309.16
2023-05-05T10:21:46.851Z,100312.84
2023-05-05T10:24:16.667Z,100313.69
2023-05-05T10:26:43.974Z,100318.00
2023-05-05T10:29:13.834Z,100315.19
2023-05-05T10:31:47.197Z,100299.59
2023-05-05T10:34:27.297Z,100293.44
2023-05-05T10:36:55.222Z,100292.53
2023-05-05T10:39:22.489Z,100297.84
2023-05-05T10:41:49.888Z,100290.81
2023-05-05T10:44:17.593Z,100288.13
2023-05-05T10:46:45.124Z,100282.88
2023-05-05T10:49:26.865Z,100282.88
2023-05-05T10:52:04.869Z,100284.59
2023-05-05T10:54:32.685Z,100271.19
2023-05-05T10:57:02.631Z,100271.78
2023-05-05T10:59:35.693Z,100268.22
2023-05-05T11:02:18.552Z,100263.87
2023-05-05T11:05:03.131Z,100260.81
2023-05-05T11:07:30.796Z,100259.12
2023-05-05T11:09:58.860Z,100252.22
2023-05-05T11:12:26.154Z,100253.69
2023-05-05T11:15:12.398Z,100251.78
2023-05-05T11:17:49.375Z,100249.94
2023-05-05T11:20:16.978Z,100241.34
2023-05-05T11:23:02.397Z,100238.03
2023-05-05T11:25:33.039Z,100238.81
2023-05-05T11:28:06.957Z,100242.91
2023-05-05T11:30:35.113Z,100238.38
2023-05-05T11:33:21.224Z,100229.50
2023-05-05T11:35:58.743Z,100228.88
2023-05-05T11:38:48.372Z,100226.44
2023-05-05T11:41:28.303Z,100223.75
2023-05-05T11:44:17.480Z,100224.72
2023-05-05T11:49:55.674Z,100215.88
2023-05-05T11:52:26.466Z,100218.44
2023-05-05T11:54:53.808Z,100210.88
2023-05-05T11:57:33.800Z,100209.66
2023-05-05T12:00:01.408Z,100204.97
2023-05-05T12:02:29.933Z,100204.94
2023-05-05T12:04:58.210Z,100202.06
2023-05-05T12:07:26.419Z,100195.69
2023-05-05T12:09:53.741Z,100201.75
2023-05-05T12:12:21.340Z,100191.78
2023-05-05T12:14:52.653Z,100187.31
2023-05-05T12:17:20.652Z,100194.78
2023-05-05T12:19:51.942Z,100190.81
2023-05-05T12:22:23.124Z,100186.69
2023-05-05T12:24:55.078Z,100187.88
2023-05-05T12:27:22.573Z,100188.22
2023-05-05T12:29:50.147Z,100188.88
2023-05-05T12:32:21.129Z,100178.63
2023-05-05T12:34:48.811Z,100189.63
2023-05-05T12:37:16.943Z,100178.38
2023-05-05T12:39:44.665Z,100177.97
2023-05-05T12:42:11.830Z,100163.69
2023-05-05T12:44:39.294Z,100169.47
2023-05-05T12:47:07.148Z,100172.78
2023-05-05T12:49:52.853Z,100181.22
2023-05-05T12:52:21.107Z,100171.38
2023-05-05T12:55:06.629Z,100166.03
2023-05-05T12:57:34.144Z,100168.12
2023-05-05T13:00:01.599Z,100163.81
2023-05-05T13:02:35.374Z,100158.84
2023-05-05T13:05:03.033Z,100152.84
2023-05-05T13:07:30.228Z,100153.19
2023-05-05T13:10:07.367Z,100152.34
2023-05-05T13:12:34.930Z,100144.38
2023-05-05T13:15:02.131Z,100145.84
2023-05-05T13:17:29.437Z,100138.53
2023-05-05T13:19:57.174Z,100130.28
2023-05-05T13:22:24.476Z,100131.59
2023-05-05T13:25:07.262Z,100130.69
2023-05-05T13:27:34.913Z,100122.06
2023-05-05T13:30:02.134Z,100125.94
2023-05-05T13:32:29.334Z,100122.44
2023-05-05T13:34:57.911Z,100122.37
2023-05-05T13:37:25.652Z,100112.69
2023-05-05T13:39:53.035Z,100112.66
2023-05-05T13:42:20.558Z,100104.59
2023-05-05T13:44:47.834Z,100109.34
2023-05-05T13:47:15.201Z,100105.69
2023-05-05T13:49:42.895Z,100097.25
2023-05-05T13:52:10.102Z,100099.19
2023-05-05T13:54:37.639Z,100094.34
2023-05-05T13:57:07.954Z,100096.16
2023-05-05T13:59:35.284Z,100092.91
2023-05-05T14:02:02.529Z,100089.62
2023-05-05T14:04:30.176Z,100096.69
2023-05-05T14:06:58.539Z,100096.69
2023-05-05T14:09:25.798Z,100096.12
2023-05-05T14:11:53.553Z,100091.69
2023-05-05T14:14:20.787Z,100095.47
2023-05-05T14:16:50.039Z,100096.47
2023-05-05T14:19:17.888Z,100092.13
2023-05-05T14:21:45.038Z,100082.44
2023-05-05T14:24:12.325Z,100086.41
2023-05-05T14:26:39.833Z,100089.16
2023-05-05T14:29:08.008Z,100085.78
2023-05-05T14:31:36.294Z,100085.22
2023-05-05T14:34:03.841Z,100074.41
2023-05-05T14:36:31.356Z,100070.34
2023-05-05T14:38:58.619Z,100073.78
2023-05-05T14:41:26.283Z,100073.38
2023-05-05T14:43:53.481Z,100069.03
2023-05-05T14:46:20.734Z,100081.63
2023-05-05T14:48:48.428Z,100076.56
2023-05-05T14:51:15.989Z,100072.88
2023-05-05T14:53:43.231Z,100070.63
2023-05-05T14:56:10.691Z,100067.31
2023-05-05T14:58:38.148Z,100066.19
2023-05-05T15:01:05.473Z,100064.06
2023-05-05T15:03:33.014Z,100062.97
2023-05-05T15:06:00.310Z,100056.84
2023-05-05T15:08:27.483Z,100064.88
2023-05-05T15:10:54.948Z,100066.19
2023-05-05T15:13:22.248Z,100064.25
2023-05-05T15:15:50.310Z,100065.41
2023-05-05T15:18:17.836Z,100058.69
2023-05-05T15:20:45.019Z,100063.00
2023-05-05T15:23:12.710Z,100064.72
2023-05-05T15:25:42.797Z,100058.03
2023-05-05T15:28:09.965Z,100060.69
2023-05-05T15:30:37.275Z,100058.28
2023-05-05T15:33:04.856Z,100059.84
2023-05-05T15:35:32.159Z,100050.37
2023-05-05T15:37:59.414Z,100051.59
2023-05-05T15:40:26.981Z,100049.03
2023-05-05T15:42:54.170Z,100049.44
2023-05-05T15:45:21.401Z,100044.44
2023-05-05T15:47:50.471Z,100046.19
2023-05-05T15:50:17.841Z,100055.31
2023-05-05T15:52:45.026Z,100053.09
2023-05-05T15:55:12.640Z,100042.88
2023-05-05T15:57:40.435Z,100046.38
2023-05-05T16:00:08.103Z,100042.66
2023-05-05T16:02:35.395Z,100050.16
2023-05-05T16:05:03.042Z,100051.25
2023-05-05T16:07:30.516Z,100048.09
2023-05-05T16:09:57.968Z,100038.16
2023-05-05T16:12:25.894Z,100034.63
2023-05-05T16:14:55.830Z,100036.75
2023-05-05T16:17:23.137Z,100033.53
2023-05-05T16:19:50.680Z,100032.31
2023-05-05T16:25:09.559Z,100027.00
2023-05-05T16:27:43.337Z,100038.13
2023-05-05T16:30:21.694Z,100023.56
2023-05-05T16:32:51.306Z,100038.19
2023-05-05T16:35:21.178Z,100026.53
2023-05-05T16:37:48.927Z,100026.91
2023-05-05T16:40:16.754Z,100027.59
2023-05-05T16:42:45.301Z,100025.78
2023-05-05T16:45:12.914Z,100032.69
2023-05-05T16:47:43.160Z,100029.56
2023-05-05T16:50:21.722Z,100031.91
2023-05-05T16:52:49.914Z,100035.06
2023-05-05T16:55:24.427Z,100030.19
2023-05-05T17:01:04.160Z,100022.41
2023-05-05T17:03:31.325Z,100028.47
2023-05-05T17:05:58.884Z,100029.50
2023-05-05T17:08:26.175Z,100027.63
2023-05-05T17:10:53.348Z,100024.97
2023-05-05T17:13:21.017Z,100031.31
2023-05-05T17:15:48.356Z,100035.31
2023-05-05T17:18:15.802Z,100024.44
2023-05-05T17:20:43.277Z,100026.38
2023-05-05T17:23:10.713Z,100029.78
2023-05-05T17:25:38.306Z,100029.03
2023-05-05T17:28:07.452Z,100032.00
2023-05-05T17:30:34.652Z,100039.16
2023-05-05T17:33:01.892Z,100030.25
2023-05-05T17:35:29.750Z,100032.12
2023-05-05T17:37:56.968Z,100035.84
2023-05-05T17:40:24.223Z,100036.06
2023-05-05T17:42:51.735Z,100036.87
2023-05-05T17:45:19.011Z,100042.97
2023-05-05T17:47:46.348Z,100035.88
2023-05-05T17:50:13.825Z,100035.22
2023-05-05T17:52:41.203Z,100038.88
2023-05-05T17:55:08.829Z,100040.63
2023-05-05T17:57:36.538Z,100037.16
2023-05-05T18:00:06.863Z,100036.25
2023-05-05T18:02:40.559Z,100043.28
2023-05-05T18:05:09.132Z,100052.12
2023-05-05T18:07:36.432Z,100051.22
2023-05-05T18:10:03.715Z,100058.28
2023-05-05T18:12:31.389Z,100058.28
2023-05-05T18:14:58.566Z,100056.50
2023-05-05T18:17:26.271Z,100059.06
2023-05-05T18:19:53.714Z,100052.81
2023-05-05T18:22:21.818Z,100064.16
2023-05-05T18:24:49.097Z,100057.03
2023-05-05T18:27:16.602Z,100056.28
2023-05-05T18:29:43.761Z,100064.97
2023-05-05T18:32:11.339Z,100066.72
2023-05-05T18:34:38.782Z,100069.28
2023-05-05T18:37:06.099Z,100067.53
2023-05-05T18:39:33.258Z,100064.09
2023-05-05T18:42:00.893Z,100072.78
2023-05-05T18:44:28.199Z,100078.00
2023-05-05T18:46:55.446Z,100073.91
2023-05-05T18:49:23.334Z,100072.06
2023-05-05T18:51:50.538Z,100077.16
2023-05-05T18:54:17.773Z,100089.19
2023-05-05T18:56:45.301Z,100085.69
2023-05-05T18:59:12.477Z,100085.03
2023-05-05T19:01:39.726Z,100094.94
2023-05-05T19:04:15.530Z,100095.75
2023-05-05T19:06:52.449Z,100094.16
2023-05-05T19:09:20.171Z,100093.22
2023-05-05T19:11:47.365Z,100095.72
2023-05-05T19:14:14.533Z,100094.28
2023-05-05T19:16:42.157Z,100097.63
2023-05-05T19:19:10.870Z,100099.09
2023-05-05T19:21:38.348Z,100100.16
2023-05-05T19:24:07.268Z,100095.13
2023-05-05T19:26:34.456Z,100092.06
2023-05-05T19:29:01.742Z,100104.84
2023-05-05T19:31:30.913Z,100100.72
2023-05-05T19:33:59.849Z,100106.75
2023-05-05T19:36:27.778Z,100097.75
2023-05-05T19:38:55.511Z,100100.53
2023-05-05T19:41:22.686Z,100105.28
2023-05-05T19:43:50.367Z,100105.50
2023-05-05T19:46:18.659Z,100111.41
2023-05-05T19:48:46.246Z,100104.00
2023-05-05T19:51:13.431Z,100104.94
2023-05-05T19:53:42.841Z,100109.22
2023-05-05T19:56:10.324Z,100103.38
2023-05-05T19:58:53.644Z,100105.47
2023-05-05T20:01:21.366Z,100101.28
2023-05-05T20:03:49.044Z,100104.66
2023-05-05T20:06:16.461Z,100103.38
2023-05-05T20:08:43.660Z,100098.91
2023-05-05T20:11:11.128Z,100106.00
2023-05-05T20:13:39.062Z,100099.00
2023-05-05T20:16:06.379Z,100099.41
2023-05-05T20:18:33.933Z,100103.00
2023-05-05T20:21:01.635Z,100103.50
2023-05-05T20:23:28.832Z,100101.63
2023-05-05T20:25:56.734Z,100106.69
2023-05-05T20:28:23.926Z,100102.34
2023-05-05T20:30:51.411Z,100099.53
2023-05-05T20:33:18.872Z,100113.00
2023-05-05T20:35:47.325Z,100099.25
2023-05-05T20:38:14.576Z,100099.25
2023-05-05T20:40:42.102Z,100098.28
2023-05-05T20:43:09.250Z,100098.53
2023-05-05T20:45:37.170Z,100091.47
2023-05-05T20:48:05.493Z,100095.50
2023-05-05T20:50:32.824Z,100098.22
2023-05-05T20:53:00.055Z,100100.34
2023-05-05T20:55:27.554Z,100100.81
2023-05-05T20:57:55.001Z,100098.16
2023-05-05T21:00:22.284Z,100095.50
2023-05-05T21:02:49.893Z,100090.91
2023-05-05T21:05:17.244Z,100097.16
2023-05-05T21:07:44.861Z,100094.72
2023-05-05T21:10:12.552Z,100099.69
2023-05-05T21:12:40.311Z,100091.72
2023-05-05T21:15:08.368Z,100092.28
2023-05-05T21:17:36.011Z,100093.22
2023-05-05T21:20:03.378Z,100092.59
2023-05-05T21:22:30.771Z,100089.78
2023-05-05T21:25:10.091Z,100085.78
2023-05-05T21:27:37.298Z,100087.66
2023-05-05T21:30:05.174Z,100086.91
2023-05-05T21:32:32.375Z,100082.16
2023-05-05T21:34:59.627Z,100083.31
2023-05-05T21:37:27.067Z,100083.63
2023-05-05T21:39:54.293Z,100081.69
2023-05-05T21:42:21.477Z,100069.44
2023-05-05T21:44:48.909Z,100067.06
2023-05-05T21:47:16.355Z,100065.19
2023-05-05T21:49:43.518Z,100062.50
2023-05-05T21:52:11.058Z,100062.16
2023-05-05T21:54:38.272Z,100061.13
2023-05-05T21:57:05.489Z,100061.34
2023-05-05T21:59:33.026Z,100060.34
2023-05-05T22:02:00.755Z,100062.00
2023-05-05T22:04:28.149Z,100059.28
2023-05-05T22:06:55.376Z,100061.00
2023-05-05T22:09:22.605Z,100061.41
2023-05-05T22:11:50.429Z,100056.03
2023-05-05T22:14:17.601Z,100067.09
2023-05-05T22:16:44.876Z,100062.00
2023-05-05T22:19:12.423Z,100063.78
2023-05-05T22:21:39.675Z,100068.28
2023-05-05T22:24:07.309Z,100064.41
2023-05-05T22:26:35.268Z,100066.78
2023-05-05T22:29:02.516Z,100073.09
2023-05-05T22:31:30.824Z,100077.22
2023-05-05T22:33:58.809Z,100083.09
2023-05-05T22:36:26.043Z,100073.41
2023-05-05T22:38:53.201Z,100077.81
2023-05-05T22:41:21.169Z,100076.56
2023-05-05T22:43:49.259Z,100077.03
2023-05-05T22:46:16.417Z,100074.22
2023-05-05T22:48:43.928Z,100082.03
2023-05-05T22:51:11.578Z,100085.13
2023-05-05T22:53:38.826Z,100091.00
2023-05-05T22:56:06.447Z,100090.75
2023-05-05T22:58:33.630Z,100096.50
2023-05-05T23:01:00.776Z,100096.91
2023-05-05T23:03:28.289Z,100091.91
2023-05-05T23:05:55.514Z,100090.81
2023-05-05T23:08:24.073Z,100084.09
2023-05-05T23:10:51.584Z,100089.00
2023-05-05T23:13:18.772Z,100082.19
2023-05-05T23:15:46.112Z,100083.88
2023-05-05T23:18:13.512Z,100085.22
2023-05-05T23:20:40.771Z,100073.06
2023-05-05T23:23:08.010Z,100079.41
2023-05-05T23:25:35.679Z,100078.69
2023-05-05T23:28:02.950Z,100072.59
2023-05-05T23:30:32.483Z,100071.00
2023-05-05T23:33:01.244Z,100073.19
2023-05-05T23:35:28.630Z,100066.63
2023-05-05T23:37:55.833Z,100063.47
2023-05-05T23:40:23.277Z,100065.28
2023-05-05T23:42:50.676Z,100062.69
2023-05-05T23:45:19.345Z,100070.31
2023-05-05T23:47:47.293Z,100069.22
2023-05-05T23:50:14.478Z,100075.56
2023-05-05T23:52:41.861Z,100072.22
2023-05-05T23:55:10.253Z,100067.28
2023-05-05T23:57:37.657Z,100070.38
